Time;durP1;ratioP1;P1;durP2;ratioP2;P2;SDS_P1;SDS_P2;PMS_P1;PMS_P2;Temp;Humidity;BMP_temperature;BMP_pressure;BME280_temperature;BME280_humidity;BME280_pressure;Samples;Min_cycle;Max_cycle;Signal;HPM_P1;HPM_P2
2023/04/10 00:02:20;;;;;;;41.35;30.08;;;;;;;;;;5034721;28;20077;-66
2023/04/10 00:04:46;;;;;;;42.75;32.20;;;;;;;;;;5051321;28;20041;-66
2023/04/10 00:07:13;;;;;;;42.70;30.45;;;;;;;;;;5051578;28;20048;-66
2023/04/10 00:09:39;;;;;;;44.00;31.23;;;;;;;;;;5050753;28;20037;-66
2023/04/10 00:12:05;;;;;;;40.03;29.95;;;;;;;;;;5051366;28;20072;-66
2023/04/10 00:14:31;;;;;;;41.33;29.25;;;;;;;;;;5050500;28;20055;-66
2023/04/10 00:16:57;;;;;;;38.13;30.25;;;;;;;;;;5051311;28;20091;-66
2023/04/10 00:19:24;;;;;;;41.10;30.98;;;;;;;;;;5050965;28;20033;-66
2023/04/10 00:21:50;;;;;;;42.72;31.35;;;;;;;;;;5033499;28;20037;-66
2023/04/10 00:24:16;;;;;;;41.75;30.92;;;;;;;;;;5050239;28;20313;-66
2023/04/10 00:26:42;;;;;;;43.13;29.70;;;;;;;;;;5033551;28;20049;-66
2023/04/10 00:29:08;;;;;;;41.40;31.48;;;;;;;;;;5047273;28;20052;-66
2023/04/10 00:31:34;;;;;;;43.33;31.48;;;;;;;;;;5050484;28;20040;-66
2023/04/10 00:34:00;;;;;;;48.60;33.35;;;;;;;;;;5050170;28;20052;-67
2023/04/10 00:36:27;;;;;;;45.03;31.33;;;;;;;;;;5048193;28;20045;-66
2023/04/10 00:38:53;;;;;;;42.03;30.45;;;;;;;;;;5049879;28;20041;-66
2023/04/10 00:41:19;;;;;;;46.30;30.40;;;;;;;;;;5050533;28;20124;-66
2023/04/10 00:43:45;;;;;;;43.55;30.45;;;;;;;;;;5031304;28;20125;-66
2023/04/10 00:46:12;;;;;;;42.78;31.30;;;;;;;;;;5029144;28;20486;-66
2023/04/10 00:48:38;;;;;;;42.75;31.63;;;;;;;;;;5032368;28;20057;-66
2023/04/10 00:51:06;;;;;;;44.78;31.58;;;;;;;;;;5033198;28;20511;-66
2023/04/10 00:53:32;;;;;;;40.25;30.85;;;;;;;;;;5048028;28;20048;-66
2023/04/10 00:55:59;;;;;;;44.15;31.88;;;;;;;;;;5050527;28;20033;-66
2023/04/10 00:58:33;;;;;;;44.33;32.38;;;;;;;;;;5046774;28;20068;-68
2023/04/10 01:01:02;;;;;;;40.17;30.38;;;;;;;;;;5013840;28;20045;-67
2023/04/10 01:03:29;;;;;;;47.30;33.22;;;;;;;;;;5049924;28;20063;-67
2023/04/10 01:05:55;;;;;;;41.35;30.38;;;;;;;;;;5050455;28;20051;-67
2023/04/10 01:08:40;;;;;;;40.05;29.58;;;;;;;;;;5047950;28;20029;-67
2023/04/10 01:11:24;;;;;;;42.58;30.70;;;;;;;;;;5048054;28;20037;-67
2023/04/10 01:13:54;;;;;;;42.85;30.77;;;;;;;;;;5049074;28;20433;-66
2023/04/10 01:16:30;;;;;;;43.38;31.13;;;;;;;;;;5049832;28;20044;-67
2023/04/10 01:19:00;;;;;;;42.92;29.90;;;;;;;;;;5045819;28;20044;-67
2023/04/10 01:21:27;;;;;;;41.92;29.33;;;;;;;;;;5044157;28;20419;-67
2023/04/10 01:23:59;;;;;;;40.97;29.95;;;;;;;;;;5049430;28;20067;-67
2023/04/10 01:26:45;;;;;;;40.97;30.27;;;;;;;;;;5049891;28;20148;-67
2023/04/10 01:29:17;;;;;;;37.33;29.65;;;;;;;;;;5047694;28;20126;-66
2023/04/10 01:31:55;;;;;;;44.97;29.63;;;;;;;;;;5033399;28;20114;-67
2023/04/10 01:34:41;;;;;;;46.40;31.08;;;;;;;;;;5050027;28;20033;-66
2023/04/10 01:37:11;;;;;;;48.13;32.03;;;;;;;;;;5048500;28;20399;-67
2023/04/10 01:39:39;;;;;;;39.60;31.13;;;;;;;;;;5049343;28;20462;-66
2023/04/10 01:42:07;;;;;;;38.88;28.13;;;;;;;;;;5031434;28;20068;-66
2023/04/10 01:44:34;;;;;;;41.25;30.35;;;;;;;;;;5049752;28;20056;-67
2023/04/10 01:47:00;;;;;;;40.28;29.40;;;;;;;;;;5031743;28;20466;-67
2023/04/10 01:49:27;;;;;;;36.25;29.25;;;;;;;;;;5049001;28;20128;-66
2023/04/10 01:51:57;;;;;;;40.67;28.77;;;;;;;;;;5047783;28;20531;-67
2023/04/10 01:54:26;;;;;;;41.45;29.20;;;13.20;99.90;;;;;;5049666;28;20116;-66
2023/04/10 01:56:52;;;;;;;41.55;29.20;;;8.40;99.90;;;;;;5022746;28;20434;-67
2023/04/10 01:59:19;;;;;;;41.35;28.92;;;8.30;99.90;;;;;;5047088;28;20044;-67
2023/04/10 02:01:45;;;;;;;41.22;28.85;;;;;;;;;;5049606;28;20048;-67
2023/04/10 02:04:11;;;;;;;38.92;29.42;;;;;;;;;;5031505;28;20152;-67
2023/04/10 02:06:44;;;;;;;48.13;28.58;;;;;;;;;;5048627;28;20246;-67
2023/04/10 02:09:28;;;;;;;43.05;30.23;;;;;;;;;;5048998;28;20048;-67
2023/04/10 02:11:58;;;;;;;40.03;29.40;;;;;;;;;;5044147;28;20062;-66
2023/04/10 02:14:28;;;;;;;38.95;28.67;;;;;;;;;;5045995;28;20132;-67
2023/04/10 02:16:55;;;;;;;40.97;30.33;;;;;;;;;;5048406;28;20085;-67
2023/04/10 02:19:25;;;;;;;42.17;29.40;;;;;;;;;;5045531;28;20376;-67
2023/04/10 02:21:52;;;;;;;38.08;28.20;;;;;;;;;;5030935;28;20079;-67
2023/04/10 02:24:19;;;;;;;41.97;31.42;;;;;;;;;;5048093;28;20098;-67
2023/04/10 02:26:49;;;;;;;39.40;29.48;;;;;;;;;;5049358;28;20041;-67
2023/04/10 02:29:15;;;;;;;38.85;29.52;;;;;;;;;;5048404;28;20037;-67
2023/04/10 02:31:41;;;;;;;39.65;28.95;;;;;;;;;;5048779;28;20044;-67
2023/04/10 02:34:08;;;;;;;40.22;29.48;;;;;;;;;;5052973;28;20041;-67
2023/04/10 02:36:38;;;;;;;38.92;29.10;;;;;;;;;;5049091;28;20052;-67
2023/04/10 02:39:04;;;;;;;39.22;30.25;;;;;;;;;;5030546;28;20069;-67
2023/04/10 02:41:31;;;;;;;39.95;29.50;;;;;;;;;;5044482;28;20033;-67
2023/04/10 02:43:57;;;;;;;44.08;29.88;;;;;;;;;;5045163;28;20037;-67
2023/04/10 02:46:23;;;;;;;41.47;31.45;;;;;;;;;;5047655;28;20044;-67
2023/04/10 02:48:50;;;;;;;50.33;32.25;;;;;;;;;;5030605;28;20604;-67
2023/04/10 02:51:16;;;;;;;49.55;33.28;;;;;;;;;;5030251;28;20048;-67
2023/04/10 02:53:42;;;;;;;43.35;31.33;;;;;;;;;;5045187;28;20045;-67
2023/04/10 02:56:10;;;;;;;38.13;29.50;;;;;;;;;;5013904;28;20140;-67
2023/04/10 02:58:37;;;;;;;42.80;31.15;;;;;;;;;;5044360;28;20039;-67
2023/04/10 03:01:05;;;;;;;40.15;29.95;;;;;;;;;;5041804;28;20076;-67
2023/04/10 03:03:31;;;;;;;45.55;31.48;;;;;;;;;;5007632;28;20534;-67
2023/04/10 03:05:57;;;;;;;39.95;30.17;;;;;;;;;;5048439;28;20049;-67
2023/04/10 03:08:23;;;;;;;45.42;33.20;;;;;;;;;;5048447;28;20098;-67
2023/04/10 03:10:50;;;;;;;45.28;32.13;;;;;;;;;;5047376;28;20075;-67
2023/04/10 03:13:16;;;;;;;45.65;31.05;;;;;;;;;;5043706;28;20041;-67
2023/04/10 03:15:42;;;;;;;47.03;31.40;;;;;;;;;;5038845;28;20041;-67
2023/04/10 03:18:09;;;;;;;40.65;31.58;;;;;;;;;;5042811;28;20375;-67
2023/04/10 03:20:37;;;;;;;46.42;31.60;;;;;;;;;;5046005;28;20085;-67
2023/04/10 03:23:06;;;;;;;43.33;30.73;;;8.30;99.90;;;;;;5048334;28;20090;-67
2023/04/10 03:25:35;;;;;;;41.92;32.33;;;;;;;;;;5047370;28;20315;-67
2023/04/10 03:28:02;;;;;;;45.58;32.53;;;;;;;;;;5022035;28;20095;-67
2023/04/10 03:30:28;;;;;;;43.58;30.05;;;;;;;;;;5013890;28;20045;-67
2023/04/10 03:32:54;;;;;;;39.97;29.83;;;;;;;;;;5046993;28;20088;-67
2023/04/10 03:35:20;;;;;;;42.35;32.50;;;;;;;;;;5051868;28;20032;-67
2023/04/10 03:37:46;;;;;;;42.97;30.92;;;;;;;;;;5033117;28;20041;-67
2023/04/10 03:40:13;;;;;;;41.38;30.98;;;;;;;;;;5045041;28;20475;-67
2023/04/10 03:42:39;;;;;;;51.88;31.73;;;;;;;;;;5027386;28;20060;-67
2023/04/10 03:45:05;;;;;;;44.88;30.90;;;;;;;;;;5030088;28;20068;-67
2023/04/10 03:47:32;;;;;;;49.22;30.10;;;;;;;;;;5046668;28;20049;-67
2023/04/10 03:49:58;;;;;;;43.45;32.15;;;;;;;;;;5028813;28;20120;-66
2023/04/10 03:52:26;;;;;;;40.53;30.35;;;;;;;;;;5044671;28;20563;-66
2023/04/10 03:54:53;;;;;;;42.67;30.92;;;;;;;;;;5044826;28;20037;-67
2023/04/10 03:57:20;;;;;;;43.67;32.08;;;;;;;;;;5030602;28;20454;-66
2023/04/10 03:59:46;;;;;;;42.05;31.52;;;;;;;;;;5029978;28;20091;-67
2023/04/10 04:02:13;;;;;;;39.20;30.35;;;;;;;;;;5030424;28;20056;-66
2023/04/10 04:04:39;;;;;;;41.05;29.75;;;;;;;;;;5028600;28;20163;-67
2023/04/10 04:07:06;;;;;;;42.50;30.02;;;;;;;;;;5041210;28;20440;-67
2023/04/10 04:09:32;;;;;;;41.47;31.35;;;;;;;;;;5027755;28;20443;-66
2023/04/10 04:11:58;;;;;;;40.45;31.38;;;;;;;;;;5047491;28;20037;-66
2023/04/10 04:14:24;;;;;;;44.60;30.60;;;;;;;;;;5050492;28;20479;-66
2023/04/10 04:16:50;;;;;;;37.63;29.85;;;;;;;;;;5050576;28;20063;-66
2023/04/10 04:19:16;;;;;;;38.40;28.20;;;;;;;;;;5016242;28;20052;-66
2023/04/10 04:21:42;;;;;;;40.28;29.80;;;;;;;;;;5033346;28;20079;-67
2023/04/10 04:24:09;;;;;;;42.55;30.90;;;;;;;;;;5051468;28;20048;-66
2023/04/10 04:26:35;;;;;;;37.10;28.98;;;;;;;;;;5051129;28;20040;-67
2023/04/10 04:29:01;;;;;;;37.08;26.77;;;;;;;;;;5050984;28;20044;-67
2023/04/10 04:31:31;;;;;;;41.58;28.35;;;;;;;;;;5050437;28;20045;-67
2023/04/10 04:34:00;;;;;;;34.53;26.10;;;;;;;;;;5050584;28;20044;-67
2023/04/10 04:36:26;;;;;;;37.88;26.40;;;;;;;;;;5050773;28;20095;-67
2023/04/10 04:38:53;;;;;;;38.67;26.00;;;;;;;;;;5030515;28;20056;-67
2023/04/10 04:41:19;;;;;;;34.88;25.42;;;;;;;;;;5045508;28;20118;-67
2023/04/10 04:43:46;;;;;;;35.75;26.20;;;;;;;;;;5049060;28;20063;-67
2023/04/10 04:46:12;;;;;;;32.88;26.13;;;;;;;;;;5051568;28;20041;-67
2023/04/10 04:48:38;;;;;;;34.17;25.67;;;;;;;;;;5050583;28;20044;-67
2023/04/10 04:51:07;;;;;;;36.40;25.50;;;;;;;;;;5043795;28;20139;-67
2023/04/10 04:53:33;;;;;;;32.65;24.15;;;;;;;;;;5039468;28;20091;-67
2023/04/10 04:55:59;;;;;;;33.17;24.17;;;;;;;;;;5027330;28;20033;-67
2023/04/10 04:58:26;;;;;;;35.92;25.33;;;;;;;;;;5045170;28;20106;-67
2023/04/10 05:00:53;;;;;;;34.03;24.73;;;;;;;;;;5045365;28;20115;-67
2023/04/10 05:03:19;;;;;;;30.48;22.98;;;;;;;;;;5045476;28;20507;-67
2023/04/10 05:05:46;;;;;;;30.70;22.98;;;;;;;;;;5046895;28;20033;-67
2023/04/10 05:08:12;;;;;;;31.52;24.15;;;;;;;;;;5043644;28;20041;-67
2023/04/10 05:10:38;;;;;;;33.78;25.40;;;;;;;;;;5049113;28;20041;-67
2023/04/10 05:13:04;;;;;;;36.33;25.25;;;;;;;;;;5043016;28;20037;-67
2023/04/10 05:15:30;;;;;;;34.15;25.65;;;;;;;;;;5026703;28;20671;-67
2023/04/10 05:17:57;;;;;;;32.28;24.67;;;;;;;;;;5047312;28;20068;-67
2023/04/10 05:20:23;;;;;;;33.20;25.27;;;;;;;;;;5049843;28;20059;-67
2023/04/10 05:22:51;;;;;;;32.75;24.67;;;;;;;;;;5046210;28;20035;-67
2023/04/10 05:25:18;;;;;;;36.10;23.92;;;;;;;;;;5025866;28;20041;-67
2023/04/10 05:27:44;;;;;;;32.58;24.80;;;;;;;;;;5023799;28;20064;-67
2023/04/10 05:30:10;;;;;;;33.50;24.05;;;;;;;;;;5050190;28;20099;-67
2023/04/10 05:32:36;;;;;;;30.88;23.98;;;;;;;;;;5049731;28;20490;-67
2023/04/10 05:35:03;;;;;;;32.72;23.02;;;;;;;;;;5048867;28;20060;-67
2023/04/10 05:37:29;;;;;;;30.85;22.17;;;;;;;;;;5043944;28;20505;-67
2023/04/10 05:39:55;;;;;;;30.63;21.33;;;;;;;;;;5048416;28;20524;-67
2023/04/10 05:42:21;;;;;;;30.50;21.73;;;;;;;;;;5048853;28;20060;-67
2023/04/10 05:44:47;;;;;;;32.40;22.15;;;;;;;;;;5045674;28;20383;-66
2023/04/10 05:47:13;;;;;;;33.05;21.73;;;;;;;;;;5036055;28;20487;-67
2023/04/10 05:49:39;;;;;;;28.58;21.92;;;;;;;;;;5039063;28;20041;-66
2023/04/10 05:52:06;;;;;;;30.33;23.88;;;;;;;;;;5049079;28;20041;-66
2023/04/10 05:54:32;;;;;;;29.23;21.77;;;;;;;;;;5030591;28;20041;-67
2023/04/10 05:56:58;;;;;;;29.58;21.13;;;;;;;;;;5030272;28;20040;-66
2023/04/10 05:59:24;;;;;;;32.20;23.30;;;;;;;;;;5038156;28;20037;-67
2023/04/10 06:01:51;;;;;;;28.70;19.88;;;;;;;;;;5047777;28;20049;-66
2023/04/10 06:04:17;;;;;;;30.85;20.67;;;;;;;;;;5046400;28;20143;-67
2023/04/10 06:06:43;;;;;;;27.67;20.83;;;;;;;;;;5044098;28;20495;-67
2023/04/10 06:09:10;;;;;;;30.02;19.45;;;;;;;;;;5047899;28;20478;-67
2023/04/10 06:11:36;;;;;;;30.10;20.83;;;;;;;;;;5045562;28;20501;-67
2023/04/10 06:14:02;;;;;;;28.95;20.33;;;;;;;;;;5048059;28;20160;-67
2023/04/10 06:16:28;;;;;;;25.85;20.20;;;;;;;;;;5030333;28;20127;-67
2023/04/10 06:18:54;;;;;;;28.75;20.05;;;;;;;;;;5030664;28;20052;-67
2023/04/10 06:21:20;;;;;;;32.60;21.13;;;;;;;;;;5046761;28;20049;-67
2023/04/10 06:23:47;;;;;;;30.00;19.95;;;;;;;;;;5054179;28;20541;-67
2023/04/10 06:26:13;;;;;;;27.02;18.20;;;;;;;;;;5047930;28;20033;-67
2023/04/10 06:28:39;;;;;;;27.88;19.15;;;;;;;;;;5028310;28;20474;-67
2023/04/10 06:31:08;;;;;;;26.85;18.02;;;;;;;;;;5040302;28;20040;-67
2023/04/10 06:33:35;;;;;;;24.75;17.48;;;;;;;;;;5024420;28;20040;-67
2023/04/10 06:36:02;;;;;;;27.88;18.00;;;;;;;;;;5047693;28;20045;-67
2023/04/10 06:38:29;;;;;;;23.65;17.38;;;;;;;;;;5029071;28;20360;-67
2023/04/10 06:40:55;;;;;;;25.90;17.17;;;;;;;;;;5039118;28;20072;-67
2023/04/10 06:43:21;;;;;;;21.45;16.17;;;;;;;;;;5028195;28;20033;-67
2023/04/10 06:45:48;;;;;;;20.20;15.75;;;;;;;;;;5011928;28;20056;-66
2023/04/10 06:48:17;;;;;;;25.40;16.00;;;;;;;;;;5030209;28;20454;-67
2023/04/10 06:50:43;;;;;;;21.35;13.93;;;;;;;;;;5047739;28;20470;-67
2023/04/10 06:53:10;;;;;;;22.13;15.73;;;;;;;;;;5045797;28;20075;-67
2023/04/10 06:55:36;;;;;;;21.70;15.18;;;;;;;;;;5047950;28;20052;-66
2023/04/10 06:58:02;;;;;;;20.52;14.27;;;;;;;;;;5045462;28;20037;-66
2023/04/10 07:00:30;;;;;;;19.88;15.27;;;;;;;;;;5046893;28;20071;-67
2023/04/10 07:02:56;;;;;;;18.95;14.07;;;;;;;;;;5046300;28;20060;-67
2023/04/10 07:05:22;;;;;;;19.88;14.23;;;;;;;;;;5045720;28;20383;-67
2023/04/10 07:07:49;;;;;;;19.30;13.52;;;;;;;;;;5048160;28;20048;-67
2023/04/10 07:10:16;;;;;;;19.60;13.02;;;;;;;;;;5047637;28;20416;-66
2023/04/10 07:12:42;;;;;;;20.33;13.38;;;;;;;;;;5027501;28;20102;-66
2023/04/10 07:15:11;;;;;;;24.63;14.68;;;;;;;;;;5039562;28;20067;-66
2023/04/10 07:17:37;;;;;;;18.95;14.05;;;;;;;;;;5043156;28;20257;-67
2023/04/10 07:20:04;;;;;;;22.15;14.98;;;;;;;;;;5007010;28;20136;-67
2023/04/10 07:22:30;;;;;;;24.27;15.10;;;;;;;;;;5045072;28;20040;-66
2023/04/10 07:24:57;;;;;;;21.40;14.73;;;;;;;;;;5044102;28;20037;-67
2023/04/10 07:27:24;;;;;;;22.02;14.82;;;;;;;;;;5040787;28;20044;-66
2023/04/10 07:29:51;;;;;;;23.45;15.32;;;;;;;;;;5024003;28;20072;-66
2023/04/10 07:32:18;;;;;;;21.17;14.77;;;;;;;;;;5046004;28;20040;-66
2023/04/10 07:34:44;;;;;;;15.52;12.10;;;;;;;;;;5028807;28;20034;-66
2023/04/10 07:37:10;;;;;;;18.75;14.52;;;;;;;;;;5021396;28;20040;-66
2023/04/10 07:39:36;;;;;;;17.88;13.30;;;;;;;;;;5025789;28;20048;-66
2023/04/10 07:42:02;;;;;;;15.68;12.50;;;;;;;;;;5027661;28;20574;-66
2023/04/10 07:44:28;;;;;;;24.77;14.38;;;;;;;;;;5041297;28;20192;-66
2023/04/10 07:46:54;;;;;;;20.63;14.30;;;;;;;;;;5044453;28;20037;-66
2023/04/10 07:49:21;;;;;;;19.95;15.27;;;;;;;;;;5051065;28;20083;-66
2023/04/10 07:51:46;;;;;;;22.95;14.55;;;7.80;99.90;;;;;;5043107;28;21920;-66
2023/04/10 07:54:12;;;;;;;21.17;14.40;;;10.40;99.90;;;;;;5047856;28;20044;-67
2023/04/10 07:56:38;;;;;;;17.30;13.68;;;10.40;99.90;;;;;;5046597;28;20144;-67
2023/04/10 07:59:04;;;;;;;19.77;13.27;;;10.50;99.90;;;;;;5027161;28;20082;-67
2023/04/10 08:01:30;;;;;;;17.60;12.68;;;10.50;99.90;;;;;;5048698;28;20324;-67
2023/04/10 08:03:56;;;;;;;18.75;12.88;;;10.60;99.90;;;;;;5039671;28;20464;-67
2023/04/10 08:06:22;;;;;;;17.60;13.27;;;10.60;99.90;;;;;;5046355;28;20048;-67
2023/04/10 08:08:49;;;;;;;20.05;14.05;;;;;;;;;;5047332;28;20037;-67
2023/04/10 08:11:24;;;;;;;20.52;14.77;;;;;;;;;;5045716;28;20136;-67
2023/04/10 08:13:51;;;;;;;19.45;14.00;;;;;;;;;;5044618;28;20083;-67
2023/04/10 08:16:18;;;;;;;19.73;12.60;;;;;;;;;;5029861;28;20206;-67
2023/04/10 08:18:45;;;;;;;16.00;12.50;;;;;;;;;;5048732;28;20086;-67
2023/04/10 08:21:11;;;;;;;15.77;12.20;;;;;;;;;;5029529;28;20453;-67
2023/04/10 08:23:37;;;;;;;17.98;11.77;;;;;;;;;;5029813;28;20064;-67
2023/04/10 08:26:04;;;;;;;16.85;12.18;;;;;;;;;;5029829;28;20047;-67
2023/04/10 08:28:31;;;;;;;15.90;11.25;;;;;;;;;;5039265;28;20047;-67
2023/04/10 08:30:57;;;;;;;16.67;11.27;;;;;;;;;;5047575;28;20095;-67
2023/04/10 08:33:23;;;;;;;17.63;12.07;;;;;;;;;;5046559;28;20028;-67
2023/04/10 08:35:49;;;;;;;16.15;11.30;;;;;;;;;;5048243;28;20041;-67
2023/04/10 08:38:16;;;;;;;16.02;11.93;;;;;;;;;;5043511;28;20037;-67
2023/04/10 08:40:43;;;;;;;15.10;11.63;;;;;;;;;;5023221;28;20144;-67
2023/04/10 08:43:09;;;;;;;22.02;12.20;;;;;;;;;;5028737;28;20037;-67
2023/04/10 08:45:35;;;;;;;17.67;12.48;;;;;;;;;;5043096;28;20070;-67
2023/04/10 08:48:05;;;;;;;15.63;11.35;;;;;;;;;;5039888;28;20091;-68
2023/04/10 08:50:34;;;;;;;16.52;10.98;;;;;;;;;;5045857;28;20041;-67
2023/04/10 08:53:04;;;;;;;16.60;12.10;;;;;;;;;;5043518;28;20040;-68
2023/04/10 08:55:31;;;;;;;17.33;12.27;;;;;;;;;;5030021;28;20051;-68
2023/04/10 08:57:57;;;;;;;14.90;10.85;;;;;;;;;;5010907;28;20094;-68
2023/04/10 09:00:23;;;;;;;15.23;11.27;;;;;;;;;;5022353;28;20238;-68
2023/04/10 09:02:53;;;;;;;12.82;10.63;;;;;;;;;;5027469;28;20076;-67
2023/04/10 09:05:20;;;;;;;16.27;10.68;;;;;;;;;;5045470;28;20094;-67
2023/04/10 09:07:46;;;;;;;16.23;11.77;;;;;;;;;;5031527;28;20083;-67
2023/04/10 09:10:12;;;;;;;15.93;11.38;;;;;;;;;;5030781;28;20288;-67
2023/04/10 09:12:46;;;;;;;15.90;10.93;;;;;;;;;;5028386;28;20515;-67
2023/04/10 09:15:12;;;;;;;16.25;10.75;;;;;;;;;;4999067;28;20102;-68
2023/04/10 09:17:54;;;;;;;13.95;10.32;;;;;;;;;;5009551;28;20129;-67
2023/04/10 09:20:21;;;;;;;14.57;10.05;;;;;;;;;;5030065;28;20052;-67
2023/04/10 09:22:47;;;;;;;15.20;11.57;;;;;;;;;;5014574;28;20045;-67
2023/04/10 09:25:29;;;;;;;16.23;11.55;;;;;;;;;;5029247;28;20145;-67
2023/04/10 09:28:07;;;;;;;15.27;10.45;;;;;;;;;;5030698;28;20036;-68
2023/04/10 09:30:35;;;;;;;14.05;10.38;;;;;;;;;;5029200;28;20111;-67
2023/04/10 09:33:01;;;;;;;13.80;10.13;;;;;;;;;;5030627;28;20049;-68
2023/04/10 09:35:38;;;;;;;16.58;10.85;;;;;;;;;;5030779;28;20101;-67
2023/04/10 09:38:15;;;;;;;12.88;9.27;;;10.70;99.90;;;;;;5014364;28;20120;-67
2023/04/10 09:40:41;;;;;;;12.32;9.18;;;12.30;99.90;;;;;;5027917;28;20051;-68
2023/04/10 09:43:25;;;;;;;13.20;10.35;;;12.30;99.90;;;;;;5013935;28;20127;-67
2023/04/10 09:45:53;;;;;;;12.23;8.57;;;12.40;99.90;;;;;;5028200;28;20037;-67
2023/04/10 09:48:19;;;;;;;14.45;9.80;;;12.40;99.90;;;;;;5026216;28;20578;-67
2023/04/10 09:50:45;;;;;;;11.30;8.73;;;12.40;99.90;;;;;;5012674;28;20103;-67
2023/04/10 09:53:18;;;;;;;14.05;10.07;;;12.50;99.90;;;;;;5015075;28;20052;-67
2023/04/10 09:55:44;;;;;;;;;;;12.50;99.90;;;;;;5032411;28;20079;-67
2023/04/10 09:58:10;;;;;;;12.60;8.48;;;12.50;99.90;;;;;;5027144;28;19917;-67
2023/04/10 10:00:44;;;;;;;13.80;9.43;;;12.50;99.90;;;;;;5023557;28;20037;-67
2023/04/10 10:03:15;;;;;;;9.63;7.93;;;12.50;99.90;;;;;;5030619;28;20048;-67
2023/04/10 10:05:46;;;;;;;12.05;8.90;;;12.50;99.90;;;;;;5043249;28;20033;-67
2023/04/10 10:08:14;;;;;;;11.65;8.70;;;12.50;99.90;;;;;;5017841;28;20481;-67
2023/04/10 10:10:50;;;;;;;12.02;8.77;;;12.50;99.90;;;;;;5013046;28;20398;-67
2023/04/10 10:13:28;;;;;;;14.15;9.15;;;12.50;99.90;;;;;;5027358;28;20037;-67
2023/04/10 10:16:00;;;;;;;9.95;8.32;;;12.50;99.90;;;;;;5017293;28;20363;-67
2023/04/10 10:19:04;;;;;;;11.32;8.73;;;12.50;99.90;;;;;;5027226;28;20051;-67
2023/04/10 10:21:33;;;;;;;12.02;9.48;;;12.50;99.90;;;;;;5027706;28;20078;-67
2023/04/10 10:24:01;;;;;;;11.77;8.77;;;12.50;99.90;;;;;;5011731;28;20477;-68
2023/04/10 10:26:30;;;;;;;11.90;8.32;;;12.50;99.90;;;;;;5007082;28;20106;-67
2023/04/10 10:28:57;;;;;;;11.85;8.85;;;12.60;99.90;;;;;;5031136;28;20447;-67
2023/04/10 10:31:30;;;;;;;14.50;9.43;;;12.60;99.90;;;;;;4999617;28;20036;-67
2023/04/10 10:33:56;;;;;;;15.00;9.00;;;12.60;99.90;;;;;;5029365;28;20504;-67
2023/04/10 10:36:23;;;;;;;12.30;9.07;;;12.70;99.90;;;;;;5042189;28;20116;-67
2023/04/10 10:39:15;;;;;;;11.90;9.02;;;12.70;99.90;;;;;;5028571;28;20135;-67
2023/04/10 10:42:14;;;;;;;12.57;9.00;;;12.80;99.90;;;;;;5012738;28;20386;-68
2023/04/10 10:44:58;;;;;;;11.77;9.25;;;12.80;99.90;;;;;;5009125;28;20037;-67
2023/04/10 10:47:31;;;;;;;10.20;7.38;;;12.90;99.90;;;;;;5013277;28;20033;-67
2023/04/10 10:49:59;;;;;;;10.75;8.27;;;12.90;99.90;;;;;;5013905;28;20041;-68
2023/04/10 10:52:44;;;;;;;12.73;7.55;;;13.00;99.90;;;;;;5026242;28;20147;-67
2023/04/10 10:55:30;;;;;;;10.45;7.78;;;12.90;99.90;;;;;;4993586;28;20053;-67
2023/04/10 10:58:10;;;;;;;15.38;9.18;;;13.00;99.90;;;;;;5046906;28;20094;-68
2023/04/10 11:00:51;;;;;;;9.75;7.60;;;13.00;99.90;;;;;;4996701;28;20052;-67
2023/04/10 11:03:16;;;;;;;16.17;9.10;;;13.00;99.90;;;;;;5023522;28;20112;-67
2023/04/10 11:05:54;;;;;;;11.95;8.43;;;12.90;99.90;;;;;;5009020;28;20550;-67
2023/04/10 11:08:34;;;;;;;10.93;8.82;;;13.00;99.90;;;;;;5029920;28;20140;-67
2023/04/10 11:11:05;;;;;;;11.02;8.65;;;13.00;99.90;;;;;;5011568;28;20149;-67
2023/04/10 11:13:34;;;;;;;10.18;8.02;;;13.00;99.90;;;;;;5028523;28;20174;-67
2023/04/10 11:16:02;;;;;;;12.48;8.98;;;13.00;99.90;;;;;;5029629;28;20434;-67
2023/04/10 11:18:49;;;;;;;11.07;8.15;;;13.00;99.90;;;;;;5027376;28;20079;-67
2023/04/10 11:21:20;;;;;;;10.05;7.68;;;13.00;99.40;;;;;;5030390;28;20151;-68
2023/04/10 11:23:49;;;;;;;15.25;8.68;;;13.00;99.70;;;;;;5026648;28;20041;-67
2023/04/10 11:26:42;;;;;;;9.13;7.15;;;13.00;99.60;;;;;;5014335;28;20049;-67
2023/04/10 11:29:17;;;;;;;13.35;7.97;;;13.10;99.60;;;;;;5020920;28;20048;-67
2023/04/10 11:31:44;;;;;;;13.05;8.52;;;13.20;99.90;;;;;;5030891;28;20044;-67
2023/04/10 11:34:10;;;;;;;11.85;8.55;;;13.30;99.90;;;;;;5013898;28;20040;-67
2023/04/10 11:36:43;;;;;;;10.90;7.88;;;13.30;99.90;;;;;;5012259;28;20567;-68
2023/04/10 11:39:12;;;;;;;;;;;;;;;;;;5028239;28;20068;-67
2023/04/10 11:41:42;;;;;;;9.82;7.63;;;;;;;;;;5024998;28;19917;-67
2023/04/10 11:44:12;;;;;;;10.85;7.68;;;;;;;;;;5044397;28;20029;-67
2023/04/10 11:46:39;;;;;;;10.05;7.32;;;;;;;;;;5050688;28;20382;-67
2023/04/10 11:49:06;;;;;;;13.40;8.65;;;;;;;;;;5029888;28;20639;-68
2023/04/10 11:51:32;;;;;;;14.85;7.70;;;;;;;;;;5028513;28;20040;-67
2023/04/10 11:54:08;;;;;;;13.10;7.57;;;;;;;;;;5047246;28;20090;-67
2023/04/10 11:56:35;;;;;;;10.02;7.93;;;;;;;;;;5040408;28;20040;-68
2023/04/10 11:59:05;;;;;;;9.32;7.97;;;;;;;;;;5024228;28;20072;-68
2023/04/10 12:01:32;;;;;;;11.65;8.07;;;;;;;;;;5018649;28;20103;-68
2023/04/10 12:03:58;;;;;;;9.02;7.32;;;;;;;;;;5029652;28;20077;-68
2023/04/10 12:06:24;;;;;;;9.00;6.57;;;;;;;;;;5013901;28;20033;-68
2023/04/10 12:08:51;;;;;;;10.23;6.97;;;;;;;;;;5006902;28;20045;-68
2023/04/10 12:11:19;;;;;;;12.68;7.53;;;;;;;;;;5010308;28;20044;-68
2023/04/10 12:13:46;;;;;;;10.77;7.22;;;;;;;;;;5021016;28;20072;-68
2023/04/10 12:16:12;;;;;;;9.05;6.15;;;;;;;;;;5026364;28;20052;-67
2023/04/10 12:18:38;;;;;;;10.00;6.80;;;;;;;;;;5037835;28;20083;-67
2023/04/10 12:21:05;;;;;;;11.05;6.93;;;;;;;;;;4985040;28;20048;-68
2023/04/10 12:23:31;;;;;;;8.15;6.80;;;;;;;;;;5044261;28;20033;-67
2023/04/10 12:26:11;;;;;;;8.93;6.82;;;;;;;;;;5005071;28;20044;-67
2023/04/10 12:28:38;;;;;;;9.48;6.80;;;;;;;;;;5026700;28;20036;-67
2023/04/10 12:31:04;;;;;;;10.82;6.70;;;;;;;;;;5012279;28;20231;-68
2023/04/10 12:33:30;;;;;;;9.10;7.07;;;;;;;;;;5023976;28;20595;-67
2023/04/10 12:35:57;;;;;;;10.52;7.55;;;;;;;;;;5022856;28;20414;-67
2023/04/10 12:38:36;;;;;;;10.15;6.97;;;;;;;;;;5012518;28;20486;-67
2023/04/10 12:41:02;;;;;;;11.20;6.88;;;;;;;;;;5013624;28;20040;-67
2023/04/10 12:43:33;;;;;;;11.00;8.27;;;;;;;;;;5031194;28;20475;-67
2023/04/10 12:45:59;;;;;;;9.85;6.80;;;;;;;;;;5015619;28;20268;-67
2023/04/10 12:48:26;;;;;;;10.38;7.05;;;;;;;;;;5029849;28;20277;-67
2023/04/10 12:50:52;;;;;;;9.73;6.75;;;;;;;;;;5013525;28;20616;-67
2023/04/10 12:53:18;;;;;;;8.93;6.55;;;;;;;;;;5031473;28;20036;-67
2023/04/10 12:56:01;;;;;;;12.65;8.18;;;;;;;;;;5023399;28;20046;-67
2023/04/10 12:58:29;;;;;;;9.75;7.05;;;;;;;;;;5048094;28;20407;-68
2023/04/10 13:00:56;;;;;;;8.63;6.55;;;;;;;;;;5017234;28;20113;-67
2023/04/10 13:03:22;;;;;;;10.90;6.35;;;;;;;;;;5031622;28;20049;-67
2023/04/10 13:05:48;;;;;;;9.85;7.50;;;;;;;;;;5030623;28;20048;-67
2023/04/10 13:08:15;;;;;;;47.83;12.95;;;;;;;;;;5029527;28;20048;-67
2023/04/10 13:10:42;;;;;;;10.82;6.82;;;;;;;;;;5012321;28;20045;-67
2023/04/10 13:13:12;;;;;;;12.38;7.75;;;;;;;;;;5031416;28;20041;-67
2023/04/10 13:15:39;;;;;;;9.52;7.32;;;;;;;;;;5023085;28;20038;-67
2023/04/10 13:18:06;;;;;;;13.60;7.18;;;;;;;;;;4997541;28;20487;-67
2023/04/10 13:20:34;;;;;;;10.35;7.05;;;;;;;;;;4996211;28;20041;-67
2023/04/10 13:23:02;;;;;;;10.13;6.75;;;;;;;;;;4998163;28;20479;-68
2023/04/10 13:25:31;;;;;;;8.68;7.00;;;;;;;;;;5011618;28;20042;-68
2023/04/10 13:27:57;;;;;;;9.73;6.97;;;;;;;;;;5040925;28;20049;-67
2023/04/10 13:30:23;;;;;;;10.00;6.80;;;;;;;;;;5039933;28;20045;-67
2023/04/10 13:32:49;;;;;;;8.13;6.95;;;;;;;;;;5016498;28;20045;-68
2023/04/10 13:35:16;;;;;;;7.88;6.55;;;;;;;;;;5014817;28;20110;-67
2023/04/10 13:37:42;;;;;;;11.40;6.65;;;;;;;;;;5007714;28;20052;-68
2023/04/10 13:40:08;;;;;;;9.38;7.45;;;;;;;;;;5009064;28;20037;-68
2023/04/10 13:42:35;;;;;;;11.45;7.30;;;;;;;;;;5012568;28;20041;-67
2023/04/10 13:45:04;;;;;;;14.48;6.68;;;;;;;;;;5014827;28;20029;-67
2023/04/10 13:47:30;;;;;;;11.02;7.57;;;;;;;;;;5025720;28;20052;-67
2023/04/10 13:49:56;;;;;;;8.70;6.57;;;;;;;;;;4999215;28;20124;-67
2023/04/10 13:52:22;;;;;;;12.27;7.25;;;;;;;;;;5012718;28;20033;-67
2023/04/10 13:54:49;;;;;;;11.70;6.68;;;;;;;;;;5029872;28;20083;-67
2023/04/10 13:57:15;;;;;;;11.07;6.70;;;;;;;;;;5047964;28;20039;-67
2023/04/10 13:59:41;;;;;;;13.35;7.75;;;;;;;;;;5025788;28;20044;-67
2023/04/10 14:02:08;;;;;;;11.10;7.40;;;;;;;;;;5030481;28;20053;-68
2023/04/10 14:04:34;;;;;;;11.40;7.32;;;;;;;;;;5013835;28;20147;-67
2023/04/10 14:07:01;;;;;;;11.07;7.38;;;;;;;;;;5030687;28;20036;-67
2023/04/10 14:09:27;;;;;;;8.70;6.65;;;;;;;;;;5027882;28;20049;-67